Centerville, IA

1:06 PM CST on January 22, 2017 (GMT -0600)
Centerville Municipal

Weather History for KTVK - January, 2013

Change the Weather History Date:

Thursday, January 3, 2013

  Actual Average Record
Temperature  
Mean Temperature 21 °F -  
Max Temperature 32 °F 31 °F 56 °F (1950)
Min Temperature 10 °F 15 °F -15 °F (1979)
Degree Days  
Heating Degree Days 44    
Moisture  
Dew Point 20 °F    
Average Humidity 82    
Maximum Humidity 100    
Minimum Humidity 55    
Precipitation  
Precipitation 0.00 in - - ()
Sea Level Pressure  
Sea Level Pressure 30.30 in    
Wind  
Wind Speed 10 mph (West)    
Max Wind Speed 16 mph    
Max Gust Speed 21 mph    
Visibility 10 miles    
Events      
Averages and records for this station are not official NWS values.
T = Trace of Precipitation, MM = Missing Value Source: NWS Daily Summary

Daily Weather History Graph

Daily Weather History Graph

Search for Another Location

Airport or City:

Trip Planner

Search our weather history database for the weather conditions in past years. The results will help you decide how hot, cold, wet, or windy it might be!

Date:

Astronomy

Jan. 03, 2013 Rise Set
Actual Time 7:35 AM CST 4:57 PM CST
Civil Twilight 7:05 AM CST 5:27 PM CST
Nautical Twilight 6:30 AM CST 6:02 PM CST
Astronomical Twilight 5:57 AM CST 6:35 PM CST
Moon 11:35 PM CST (1/3) 10:45 AM CST (1/3)
Length of Visible Light 10h 22m
Length of Day
9h 21m
Waning Gibbous, 65% of the Moon is Illuminated
Jan 3
Waning Gibbous
Jan 4
Last Quarter
Jan 11
New
Jan 18
First Quarter
Jan 26
Full

Hourly Weather History & Observations

Time (CST) Temp. Windchill Dew Point Humidity Pressure Visibility Wind Dir Wind Speed Gust Speed Precip Events Conditions
12:15 AM 28.4 °F 18.5 °F 26.6 °F 93% 30.18 in 10.0 mi WSW 11.5 mph - N/A   Overcast
12:35 AM 28.4 °F 19.7 °F 26.6 °F 93% 30.18 in 10.0 mi WSW 9.2 mph - N/A   Overcast
12:55 AM 28.4 °F 19.7 °F 26.6 °F 93% 30.18 in 10.0 mi West 9.2 mph - N/A   Overcast
1:15 AM 28.4 °F 19.7 °F 26.6 °F 93% 30.18 in 10.0 mi West 9.2 mph - N/A   Overcast
1:35 AM 28.4 °F 19.7 °F 26.6 °F 93% 30.18 in - WSW 9.2 mph - N/A   Overcast
1:55 AM 28.4 °F 19.7 °F 26.6 °F 93% 30.19 in 10.0 mi West 9.2 mph - N/A   Overcast
2:15 AM 28.4 °F 20.4 °F 26.6 °F 93% 30.20 in - West 8.1 mph - N/A   Overcast
2:35 AM 28.4 °F 21.2 °F 26.6 °F 93% 30.20 in - WSW 6.9 mph - N/A   Overcast
2:55 AM 28.4 °F 21.2 °F 26.6 °F 93% 30.20 in - WSW 6.9 mph - N/A   Overcast
3:15 AM 28.4 °F 20.4 °F 26.6 °F 93% 30.21 in 10.0 mi WSW 8.1 mph - N/A   Overcast
3:35 AM 28.4 °F 19.7 °F 26.6 °F 93% 30.21 in 10.0 mi WSW 9.2 mph - N/A   Overcast
3:55 AM 28.4 °F 19.7 °F 26.6 °F 93% 30.21 in 10.0 mi West 9.2 mph - N/A   Overcast
4:15 AM 28.4 °F 19.7 °F 28.4 °F 100% 30.21 in 10.0 mi WSW 9.2 mph - N/A   Overcast
4:35 AM 28.4 °F 19.7 °F 28.4 °F 100% 30.21 in 10.0 mi WSW 9.2 mph - N/A   Overcast
4:55 AM 28.4 °F 18.5 °F 28.4 °F 100% 30.21 in 10.0 mi WSW 11.5 mph - N/A   Overcast
5:15 AM 30.2 °F 21.3 °F 28.4 °F 93% 30.22 in 10.0 mi WSW 10.4 mph - N/A   Overcast
5:35 AM 30.2 °F 21.3 °F 28.4 °F 93% 30.22 in 10.0 mi WSW 10.4 mph - N/A   Overcast
5:55 AM 28.4 °F 19.1 °F 26.6 °F 93% 30.23 in 10.0 mi West 10.4 mph - N/A   Overcast
6:15 AM 28.4 °F 19.1 °F 26.6 °F 93% 30.23 in 10.0 mi West 10.4 mph - N/A   Overcast
6:35 AM 28.4 °F 19.1 °F 26.6 °F 93% 30.24 in 10.0 mi West 10.4 mph - N/A   Overcast
7:15 AM 28.4 °F 19.7 °F 26.6 °F 93% 30.25 in 10.0 mi West 9.2 mph - N/A   Overcast
7:35 AM 28.4 °F 18.0 °F 26.6 °F 93% 30.25 in 10.0 mi WNW 12.7 mph - N/A   Overcast
7:55 AM 28.4 °F 18.5 °F 26.6 °F 93% 30.26 in 10.0 mi WNW 11.5 mph - N/A   Overcast
8:15 AM 30.2 °F 20.8 °F 26.6 °F 86% 30.27 in 10.0 mi WNW 11.5 mph - N/A   Overcast
8:35 AM 30.2 °F 20.8 °F 26.6 °F 86% 30.27 in 10.0 mi WNW 11.5 mph - N/A   Overcast
8:55 AM 30.2 °F 19.8 °F 26.6 °F 86% 30.28 in 10.0 mi WNW 13.8 mph - N/A   Overcast
9:15 AM 32.0 °F 22.1 °F 26.6 °F 80% 30.29 in 10.0 mi WNW 13.8 mph - N/A   Overcast
9:35 AM 32.0 °F 21.6 °F 24.8 °F 75% 30.30 in 10.0 mi WNW 15.0 mph 18.4 mph N/A   Overcast
9:55 AM 32.0 °F 21.6 °F 24.8 °F 75% 30.30 in 10.0 mi West 15.0 mph - N/A   Overcast
10:15 AM 26.6 °F 14.3 °F 24.8 °F 93% 30.32 in 10.0 mi NNW 16.1 mph 19.6 mph N/A   Overcast
10:35 AM 26.6 °F 15.7 °F 23.0 °F 86% 30.33 in 10.0 mi NNW 12.7 mph - N/A   Overcast
10:55 AM 26.6 °F 15.7 °F 23.0 °F 86% 30.33 in 10.0 mi NW 12.7 mph - N/A   Mostly Cloudy
11:15 AM 26.6 °F 16.8 °F 23.0 °F 86% 30.33 in 10.0 mi WNW 10.4 mph - N/A   Mostly Cloudy
11:35 AM 28.4 °F 18.0 °F 23.0 °F 80% 30.32 in 10.0 mi WNW 12.7 mph - N/A   Overcast
11:55 AM 30.2 °F 19.3 °F 23.0 °F 75% 30.31 in 10.0 mi WNW 15.0 mph 20.7 mph N/A   Mostly Cloudy
12:15 PM 30.2 °F 19.8 °F 23.0 °F 75% 30.31 in 10.0 mi WNW 13.8 mph - N/A   Mostly Cloudy
12:35 PM 28.4 °F 17.0 °F 23.0 °F 80% 30.31 in 10.0 mi WNW 15.0 mph 18.4 mph N/A   Mostly Cloudy
12:55 PM 28.4 °F 18.5 °F 23.0 °F 80% 30.30 in 10.0 mi West 11.5 mph - N/A   Mostly Cloudy
1:15 PM 28.4 °F 18.0 °F 23.0 °F 80% 30.31 in 10.0 mi NW 12.7 mph - N/A   Overcast
1:35 PM 28.4 °F 17.5 °F 19.4 °F 69% 30.31 in 10.0 mi NW 13.8 mph - N/A   Scattered Clouds
1:55 PM 28.4 °F 17.0 °F 17.6 °F 64% 30.31 in 10.0 mi West 15.0 mph - N/A   Partly Cloudy
2:15 PM 28.4 °F 17.5 °F 14.0 °F 55% 30.31 in 10.0 mi WNW 13.8 mph - N/A   Clear
2:35 PM 26.6 °F 15.2 °F 14.0 °F 59% 30.32 in 10.0 mi NW 13.8 mph 18.4 mph N/A   Clear
2:55 PM 26.6 °F 15.2 °F 14.0 °F 59% 30.33 in 10.0 mi West 13.8 mph - N/A   Clear
3:15 PM 26.6 °F 15.7 °F 14.0 °F 59% 30.33 in 10.0 mi NW 12.7 mph - N/A   Clear
3:35 PM 26.6 °F 15.7 °F 14.0 °F 59% 30.34 in 10.0 mi WNW 12.7 mph - N/A   Clear
3:55 PM 24.8 °F 13.4 °F 14.0 °F 64% 30.34 in 10.0 mi NW 12.7 mph - N/A   Clear
4:15 PM 24.8 °F 12.9 °F 14.0 °F 64% 30.34 in 10.0 mi West 13.8 mph - N/A   Clear
4:55 PM 23.0 °F 11.7 °F 12.2 °F 63% 30.36 in 10.0 mi West 11.5 mph - N/A   Clear
5:15 PM 19.4 °F 7.2 °F 10.4 °F 68% 30.36 in 10.0 mi West 11.5 mph - N/A   Clear
5:35 PM 19.4 °F 8.6 °F 10.4 °F 68% 30.37 in 10.0 mi West 9.2 mph - N/A   Clear
5:55 PM 17.6 °F 7.3 °F 10.4 °F 73% 30.37 in 10.0 mi WNW 8.1 mph - N/A   Clear
6:15 PM 17.6 °F 7.3 °F 10.4 °F 73% 30.38 in 10.0 mi WNW 8.1 mph - N/A   Clear
6:35 PM 17.6 °F 7.3 °F 10.4 °F 73% 30.38 in 10.0 mi WNW 8.1 mph - N/A   Clear
6:55 PM 15.8 °F 6.1 °F 10.4 °F 79% 30.38 in 10.0 mi WNW 6.9 mph - N/A   Clear
7:15 PM 15.8 °F 7.2 °F 10.4 °F 79% 30.39 in 10.0 mi West 5.8 mph - N/A   Clear
7:35 PM 15.8 °F 6.1 °F 10.4 °F 79% 30.38 in 10.0 mi West 6.9 mph - N/A   Clear
7:55 PM 15.8 °F 7.2 °F 10.4 °F 79% 30.38 in - West 5.8 mph - N/A   Clear
8:15 PM 15.8 °F 7.2 °F 10.4 °F 79% 30.39 in - WSW 5.8 mph - N/A   Clear
8:35 PM 15.8 °F 6.1 °F 10.4 °F 79% 30.38 in - West 6.9 mph - N/A   Clear
8:55 PM 14.0 °F 5.1 °F 10.4 °F 86% 30.38 in - West 5.8 mph - N/A   Unknown
9:15 PM 14.0 °F 5.1 °F 10.4 °F 86% 30.37 in - WSW 5.8 mph - N/A   Unknown
9:35 PM 14.0 °F 2.9 °F 10.4 °F 86% 30.36 in - West 8.1 mph - N/A   Unknown
9:55 PM 14.0 °F 5.1 °F 10.4 °F 86% 30.36 in - WSW 5.8 mph - N/A   Unknown
10:15 PM 14.0 °F 5.1 °F 10.4 °F 86% 30.36 in - West 5.8 mph - N/A   Unknown
10:35 PM 14.0 °F 5.1 °F 8.6 °F 79% 30.35 in - SW 5.8 mph - N/A   Clear
10:55 PM 14.0 °F 5.1 °F 8.6 °F 79% 30.36 in - SW 5.8 mph - N/A   Unknown
11:15 PM 12.2 °F 4.3 °F 8.6 °F 85% 30.36 in - WNW 4.6 mph - N/A   Unknown
11:35 PM 10.4 °F 2.2 °F 8.6 °F 92% 30.35 in - SW 4.6 mph - N/A   Unknown
11:55 PM 10.4 °F -0.4 °F 8.6 °F 92% 30.35 in - SW 6.9 mph - N/A   Unknown